LFPOLSZA

Guest
Details From LFPO - Paris Orly
To LSZA - Lugano
Flight Number -
Tags Generated
Created
Modified
Stats Distance 312 nm / 577 km
Max Altitude 0 ft / 0 m
Waypoints 3
Social Downloads 0
Likes 0
Share VATSIM

Download

Looking for another format? Having issues loading an existing format? Contact us
Advertisement - Login to hide

Notes

Generated

Route

LFPO ODINA LSZA

ID Type Via Altitude Latitude Longitude Leg Dist Tot Dist Heading (true) Name
O LFPO APT - 0 ft / 0 m 48.71772˚ 2.37681˚ - 0 nm - -
ODINA FIX - 0 ft / 0 m 46.10444˚ 8.66500˚ 299 nm 299 nm 119° / 124° -
O LSZA APT - 0 ft / 0 m 45.99853˚ 8.90776˚ 11 nm 311 nm 122° / 122° Lugano

Altitude Profile

Advertisement - Login to hide

Weather


0- 5 10 15 20 25 30 35+ Temperature / ° C

Clouds and Precipitation
Forecast for 2017-12-17 12:00 UTC. Updated an hour ago

Ground ~20,000 ft ~40,000 ft Winds

LFPO

Details ICAO LFPO (ORY)
Name Paris Orly
Region France
Timezone Europe/Paris (UTC+1.0)
Stats Elevation 291 ft / 89 m (AMSL)
Location 48.726360° 2.367029°
Runways 3
Magnetic Variation 0.601° E

METAR

LFPO 171200Z VRB02KT 9999 SCT020 SCT026 BKN190 06/01 Q1026 TEMPO BKN012

Decode

TAF

TAF LFPO 171100Z 1712/1818 20003KT 9999 SCT012 TEMPO 1712/1715 BKN012 BECMG 1715/1717 BKN012 BECMG 1717/1719 20010KT BKN008 TEMPO 1719/1724 2000 -DZRA BKN002 TEMPO 1800/1805 3000 RA OVC004 BECMG 1806/1808 35010KT BKN018

Decode

Departure Runways

ID Width Length Bearing (true) Bearing (mag) Surface Threshold Offset Overrun Length
02 197 ft / 60 m 7,873 ft / 2,400 m 18.29° 17.69° Concrete 0 ft / 0 m 0 ft / 0 m
06 148 ft / 45 m 11,952 ft / 3,643 m 61.78° 61.18° Asphalt 984 ft / 300 m 197 ft / 60 m
08 148 ft / 45 m 10,868 ft / 3,313 m 74.36° 73.76° Concrete 0 ft / 0 m 1,050 ft / 320 m
20 197 ft / 60 m 7,873 ft / 2,400 m 198.30° 197.70° Concrete 0 ft / 0 m 0 ft / 0 m
24 148 ft / 45 m 11,952 ft / 3,643 m 241.81° 241.21° Asphalt 0 ft / 0 m 197 ft / 60 m
26 148 ft / 45 m 10,868 ft / 3,313 m 254.39° 253.79° Concrete 1,427 ft / 435 m 0 ft / 0 m

LSZA

Details ICAO LSZA (LUG)
Name Lugano
Region Switzerland
Timezone Europe/Zurich (UTC+1.0)
Stats Elevation 915 ft / 279 m (AMSL)
Location 46.004275° 8.910579°
Runways 1
Magnetic Variation 2.424° E

METAR

LSZA 171220Z 01010KT CAVOK 07/M10 Q1020 NOSIG

Decode

TAF

Not found

Destination Runways

ID Width Length Bearing (true) Bearing (mag) Surface Threshold Offset Overrun Length
01 98 ft / 30 m 4,430 ft / 1,350 m 18.79° 16.37° Asphalt 361 ft / 110 m 0 ft / 0 m
19 98 ft / 30 m 4,430 ft / 1,350 m 198.79° 196.37° Asphalt 673 ft / 205 m 0 ft / 0 m

Approach Navaids

Runway Type Ident Frequency Range Bearing (true) Bearing (mag) Slope Elevation
01 Localiser ILU 111.50 MHz 18 nm / 33 km 18.79° 16.37° - 928 ft / 283 m (AMSL)
01 Glidescope ILU 111.50 MHz 10 nm / 19 km 19.99° 17.57° 6.00° 928 ft / 283 m (AMSL)
01 DME ILU 111.50 MHz 18 nm / 33 km - - - 928 ft / 283 m (AMSL)